Terminal Aerodrome Forecast
Issued by NWS

Home | Current Version | Previous Version | Text Only | Print | Product List | Glossary On
Versions: 1 2 3 4 5 6 7 8 9 10 11 12 13 14 15 16 17
000
FTUS45 KTFX 291120
TAFHVR
TAF
KHVR 291120Z 2912/3012 30009KT P6SM SCT060 BKN110
     FM292200 31011KT P6SM BKN060
     FM300300 VRB05KT P6SM SCT060 BKN200=

USA.gov is the U.S. government's official web portal to all federal, state and local government web resources and services.